createdAt,value
2023-03-28T00:00:33.976Z,36.57
2023-03-28T00:03:00.441Z,36.51
2023-03-28T00:05:28.129Z,36.55
2023-03-28T00:07:54.896Z,37.12
2023-03-28T00:10:21.346Z,37.52
2023-03-28T00:12:47.986Z,37.74
2023-03-28T00:15:15.259Z,37.72
2023-03-28T00:17:41.730Z,37.59
2023-03-28T00:20:10.573Z,37.42
2023-03-28T00:22:39.169Z,37.65
2023-03-28T00:25:07.398Z,37.84
2023-03-28T00:27:35.240Z,37.76
2023-03-28T00:30:03.586Z,37.88
2023-03-28T00:32:30.055Z,38.23
2023-03-28T00:34:56.500Z,38.23
2023-03-28T00:37:23.171Z,38.01
2023-03-28T00:39:53.860Z,37.71
2023-03-28T00:42:23.249Z,37.59
2023-03-28T00:44:53.384Z,37.67
2023-03-28T00:47:45.574Z,37.67
2023-03-28T00:50:36.712Z,37.72
2023-03-28T00:53:09.379Z,37.84
2023-03-28T00:55:51.680Z,37.71
2023-03-28T00:58:23.164Z,37.56
2023-03-28T01:00:50.733Z,36.84
2023-03-28T01:03:19.434Z,37.79
2023-03-28T01:05:47.855Z,37.66
2023-03-28T01:08:26.565Z,38.21
2023-03-28T01:10:53.043Z,38.07
2023-03-28T01:13:26.978Z,37.83
2023-03-28T01:15:53.882Z,37.87
2023-03-28T01:18:23.890Z,38.55
2023-03-28T01:21:16.915Z,38.32
2023-03-28T01:23:49.283Z,37.66
2023-03-28T01:26:34.415Z,37.22
2023-03-28T01:29:19.128Z,37.02
2023-03-28T01:32:13.766Z,36.92
2023-03-28T01:35:01.516Z,37.34
2023-03-28T01:37:52.201Z,37.50
2023-03-28T01:40:26.083Z,37.57
2023-03-28T01:42:59.860Z,37.42
2023-03-28T01:45:43.042Z,37.46
2023-03-28T01:48:28.094Z,37.55
2023-03-28T01:51:19.520Z,37.52
2023-03-28T01:54:01.631Z,37.47
2023-03-28T01:56:50.360Z,37.63
2023-03-28T01:59:38.483Z,37.79
2023-03-28T02:02:14.002Z,37.84
2023-03-28T02:04:45.216Z,37.58
2023-03-28T02:07:13.409Z,36.70
2023-03-28T02:09:43.975Z,36.83
2023-03-28T02:12:16.929Z,36.27
2023-03-28T02:14:46.714Z,36.15
2023-03-28T02:17:16.499Z,35.92
2023-03-28T02:19:50.936Z,37.34
2023-03-28T02:22:30.979Z,38.85
2023-03-28T02:24:57.729Z,39.87
2023-03-28T02:27:24.235Z,40.37
2023-03-28T02:29:54.300Z,41.36
2023-03-28T02:32:24.226Z,41.49
2023-03-28T02:34:54.029Z,41.40
2023-03-28T02:37:38.474Z,41.42
2023-03-28T02:40:08.031Z,41.10
2023-03-28T02:42:55.648Z,41.74
2023-03-28T02:45:40.840Z,41.61
2023-03-28T02:48:25.628Z,42.37
2023-03-28T02:51:00.810Z,42.41
2023-03-28T02:53:36.311Z,42.09
2023-03-28T02:56:14.655Z,42.06
2023-03-28T02:58:52.375Z,41.62
2023-03-28T03:01:19.481Z,41.05
2023-03-28T03:03:47.030Z,41.04
2023-03-28T03:06:13.837Z,41.77
2023-03-28T03:08:40.264Z,41.52
2023-03-28T03:11:06.886Z,41.59
2023-03-28T03:13:33.337Z,40.93
2023-03-28T03:16:00.364Z,41.05
2023-03-28T03:18:27.511Z,40.96
2023-03-28T03:20:54.753Z,41.57
2023-03-28T03:23:21.547Z,41.00
2023-03-28T03:25:50.516Z,41.30
2023-03-28T03:28:17.124Z,41.23
2023-03-28T03:30:43.551Z,41.33
2023-03-28T03:33:11.332Z,41.91
2023-03-28T03:35:45.774Z,42.28
2023-03-28T03:38:13.113Z,42.85
2023-03-28T03:40:39.753Z,44.26
2023-03-28T03:43:06.253Z,43.96
2023-03-28T03:45:32.651Z,44.69
2023-03-28T03:47:59.153Z,44.83
2023-03-28T03:50:25.658Z,44.47
2023-03-28T03:52:52.074Z,44.61
2023-03-28T03:55:18.564Z,44.70
2023-03-28T03:57:45.278Z,45.31
2023-03-28T04:00:12.517Z,45.95
2023-03-28T04:02:40.050Z,45.86
2023-03-28T04:05:08.461Z,46.11
2023-03-28T04:07:35.692Z,46.01
2023-03-28T04:10:02.683Z,46.62
2023-03-28T04:12:29.119Z,46.29
2023-03-28T04:14:55.953Z,46.27
2023-03-28T04:17:23.427Z,46.72
2023-03-28T04:19:49.971Z,46.23
2023-03-28T04:22:18.276Z,46.78
2023-03-28T04:24:45.787Z,46.38
2023-03-28T04:27:12.332Z,46.85
2023-03-28T04:29:39.305Z,46.86
2023-03-28T04:32:06.593Z,46.83
2023-03-28T04:34:33.923Z,46.98
2023-03-28T04:37:02.158Z,47.24
2023-03-28T04:39:35.677Z,46.66
2023-03-28T04:42:04.335Z,46.24
2023-03-28T04:44:31.525Z,46.47
2023-03-28T04:46:58.252Z,45.91
2023-03-28T04:49:25.660Z,46.31
2023-03-28T04:51:52.185Z,46.73
2023-03-28T04:54:19.332Z,46.37
2023-03-28T04:56:49.762Z,46.40
2023-03-28T04:59:17.757Z,46.42
2023-03-28T05:01:49.694Z,46.73
2023-03-28T05:04:17.971Z,46.13
2023-03-28T05:06:46.382Z,46.49
2023-03-28T05:09:14.581Z,46.17
2023-03-28T05:11:43.629Z,46.75
2023-03-28T05:14:10.838Z,46.86
2023-03-28T05:16:40.988Z,47.05
2023-03-28T05:19:10.059Z,46.91
2023-03-28T05:21:41.114Z,48.20
2023-03-28T05:24:08.880Z,50.39
2023-03-28T05:26:38.374Z,51.46
2023-03-28T05:29:05.233Z,51.20
2023-03-28T05:31:33.751Z,51.31
2023-03-28T05:34:03.035Z,50.91
2023-03-28T05:36:30.258Z,50.62
2023-03-28T05:38:57.202Z,50.65
2023-03-28T05:41:26.349Z,50.25
2023-03-28T05:43:53.138Z,50.02
2023-03-28T05:46:19.976Z,50.04
2023-03-28T05:48:49.293Z,50.28
2023-03-28T05:51:16.994Z,51.73
2023-03-28T05:53:45.749Z,51.82
2023-03-28T05:56:12.508Z,52.77
2023-03-28T05:58:40.335Z,53.15
2023-03-28T06:01:08.040Z,54.02
2023-03-28T06:03:40.469Z,53.87
2023-03-28T06:06:08.308Z,54.47
2023-03-28T06:08:35.060Z,55.98
2023-03-28T06:11:02.848Z,58.24
2023-03-28T06:13:31.155Z,59.73
2023-03-28T06:15:58.414Z,57.94
2023-03-28T06:18:25.440Z,56.95
2023-03-28T06:20:52.274Z,56.64
2023-03-28T06:23:18.987Z,56.48
2023-03-28T06:25:45.523Z,56.39
2023-03-28T06:28:11.992Z,54.20
2023-03-28T06:30:40.032Z,53.91
2023-03-28T06:33:06.899Z,53.46
2023-03-28T06:35:37.001Z,54.80
2023-03-28T06:38:03.566Z,53.62
2023-03-28T06:40:30.594Z,53.73
2023-03-28T06:42:57.082Z,52.88
2023-03-28T06:45:23.981Z,52.34
2023-03-28T06:47:51.217Z,52.67
2023-03-28T06:50:18.749Z,51.65
2023-03-28T06:52:45.805Z,52.69
2023-03-28T06:55:12.791Z,53.23
2023-03-28T06:57:39.645Z,53.36
2023-03-28T07:00:07.381Z,53.37
2023-03-28T07:02:34.662Z,52.75
2023-03-28T07:05:01.317Z,52.58
2023-03-28T07:07:27.912Z,52.81
2023-03-28T07:09:54.810Z,52.21
2023-03-28T07:12:21.780Z,51.11
2023-03-28T07:14:48.325Z,51.01
2023-03-28T07:17:15.497Z,49.58
2023-03-28T07:19:41.947Z,49.51
2023-03-28T07:22:08.627Z,49.33
2023-03-28T07:24:36.076Z,49.66
2023-03-28T07:27:14.885Z,49.58
2023-03-28T07:29:43.152Z,49.73
2023-03-28T07:32:11.334Z,49.95
2023-03-28T07:34:37.930Z,49.33
2023-03-28T07:37:05.521Z,50.40
2023-03-28T07:39:32.202Z,50.67
2023-03-28T07:41:58.706Z,50.17
2023-03-28T07:44:25.419Z,49.96
2023-03-28T07:46:52.785Z,49.72
2023-03-28T07:49:23.150Z,49.08
2023-03-28T07:51:50.429Z,48.13
2023-03-28T07:54:19.989Z,47.23
2023-03-28T07:56:49.619Z,46.37
2023-03-28T07:59:17.261Z,47.15
2023-03-28T08:01:49.032Z,47.69
2023-03-28T08:04:15.769Z,48.12
2023-03-28T08:06:42.327Z,46.93
2023-03-28T08:09:11.585Z,46.64
2023-03-28T08:11:39.806Z,45.83
2023-03-28T08:14:11.175Z,45.92
2023-03-28T08:16:41.201Z,44.13
2023-03-28T08:19:11.668Z,43.91
2023-03-28T08:21:41.456Z,43.44
2023-03-28T08:24:09.636Z,41.58
2023-03-28T08:26:37.539Z,41.34
2023-03-28T08:29:04.888Z,40.47
2023-03-28T08:31:31.605Z,40.07
2023-03-28T08:33:58.566Z,38.25
2023-03-28T08:36:27.175Z,37.84
2023-03-28T08:38:57.387Z,36.64
2023-03-28T08:41:46.290Z,33.64
2023-03-28T08:44:18.790Z,34.81
2023-03-28T08:46:49.843Z,34.42
2023-03-28T08:49:17.991Z,34.52
2023-03-28T08:51:57.648Z,33.87
2023-03-28T08:54:27.626Z,34.06
2023-03-28T08:56:57.301Z,34.02
2023-03-28T08:59:44.431Z,32.88
2023-03-28T09:02:28.469Z,31.82
2023-03-28T09:05:08.224Z,31.96
2023-03-28T09:08:23.913Z,28.56
2023-03-28T09:10:58.387Z,30.78
2023-03-28T09:13:34.743Z,31.29
2023-03-28T09:16:20.149Z,29.62
2023-03-28T09:19:11.227Z,27.50
2023-03-28T09:22:15.977Z,27.03
2023-03-28T09:25:15.475Z,27.22
2023-03-28T09:28:06.914Z,27.65
2023-03-28T09:30:38.041Z,29.22
2023-03-28T09:33:15.996Z,29.70
2023-03-28T09:35:43.425Z,29.62
2023-03-28T09:38:38.205Z,29.09
2023-03-28T09:41:12.054Z,28.63
2023-03-28T09:43:51.349Z,26.77
2023-03-28T09:46:40.280Z,26.85
2023-03-28T09:49:15.499Z,27.70
2023-03-28T09:51:43.568Z,27.95
2023-03-28T09:54:11.476Z,28.31
2023-03-28T09:56:48.011Z,28.21
2023-03-28T09:59:37.627Z,26.90
2023-03-28T10:02:05.451Z,26.87
2023-03-28T10:04:38.519Z,27.51
2023-03-28T10:07:11.208Z,27.91
2023-03-28T10:09:55.120Z,29.31
2023-03-28T10:12:32.026Z,29.74
2023-03-28T10:14:58.654Z,30.41
2023-03-28T10:17:30.351Z,29.53
2023-03-28T10:20:04.802Z,28.50
2023-03-28T10:22:34.922Z,29.60
2023-03-28T10:25:07.940Z,28.86
2023-03-28T10:27:43.271Z,28.97
2023-03-28T10:30:25.407Z,28.45
2023-03-28T10:33:29.555Z,26.80
2023-03-28T10:36:09.607Z,26.43
2023-03-28T10:38:49.756Z,28.32
2023-03-28T10:41:28.248Z,27.62
2023-03-28T10:43:57.688Z,27.38
2023-03-28T10:46:39.994Z,27.56
2023-03-28T10:49:14.467Z,25.62
2023-03-28T10:51:42.166Z,26.11
2023-03-28T10:54:11.639Z,27.82
2023-03-28T10:56:52.665Z,27.08
2023-03-28T10:59:19.316Z,27.06
2023-03-28T11:02:02.145Z,28.27
2023-03-28T11:04:50.963Z,26.98
2023-03-28T11:07:50.843Z,26.32
2023-03-28T11:10:26.165Z,27.44
2023-03-28T11:13:04.836Z,27.08
2023-03-28T11:15:57.656Z,26.38
2023-03-28T11:18:40.566Z,25.24
2023-03-28T11:21:25.368Z,25.54
2023-03-28T11:24:19.555Z,24.46
2023-03-28T11:27:02.107Z,25.09
2023-03-28T11:29:49.235Z,25.08
2023-03-28T11:32:31.611Z,23.96
2023-03-28T11:35:01.634Z,25.69
2023-03-28T11:37:31.096Z,24.40
2023-03-28T11:40:20.187Z,24.73
2023-03-28T11:42:57.248Z,25.48
2023-03-28T11:45:52.274Z,23.31
2023-03-28T11:48:46.153Z,25.33
2023-03-28T11:51:25.729Z,25.21
2023-03-28T11:53:54.853Z,25.65
2023-03-28T11:56:56.317Z,23.54
2023-03-28T11:59:26.421Z,23.35
2023-03-28T12:02:01.935Z,24.44
2023-03-28T12:04:42.979Z,22.33
2023-03-28T12:07:20.917Z,23.13
2023-03-28T12:09:56.569Z,23.39
2023-03-28T12:12:32.733Z,24.05
2023-03-28T12:15:05.780Z,25.38
2023-03-28T12:17:40.298Z,24.19
2023-03-28T12:20:16.105Z,24.06
2023-03-28T12:22:47.494Z,24.11
2023-03-28T12:25:26.200Z,23.60
2023-03-28T12:28:00.349Z,23.66
2023-03-28T12:30:54.857Z,22.45
2023-03-28T12:33:37.387Z,23.08
2023-03-28T12:36:24.180Z,23.30
2023-03-28T12:38:59.685Z,23.99
2023-03-28T12:41:34.542Z,23.37
2023-03-28T12:44:12.731Z,24.30
2023-03-28T12:46:51.562Z,22.91
2023-03-28T12:49:29.842Z,24.24
2023-03-28T12:52:05.273Z,24.45
2023-03-28T12:54:52.325Z,23.17
2023-03-28T12:57:46.120Z,21.72
2023-03-28T13:00:48.801Z,23.13
2023-03-28T13:03:51.813Z,21.86
2023-03-28T13:06:36.574Z,23.70
2023-03-28T13:09:17.954Z,25.05
2023-03-28T13:12:19.037Z,24.18
2023-03-28T13:15:17.874Z,24.64
2023-03-28T13:18:09.085Z,24.40
2023-03-28T13:20:45.062Z,24.33
2023-03-28T13:23:14.278Z,23.90
2023-03-28T13:25:44.285Z,24.04
2023-03-28T13:28:11.219Z,24.14
2023-03-28T13:30:57.883Z,24.46
2023-03-28T13:33:38.928Z,23.21
2023-03-28T13:36:06.066Z,22.58
2023-03-28T13:38:46.439Z,22.49
2023-03-28T13:41:41.380Z,22.33
2023-03-28T13:44:16.947Z,22.23
2023-03-28T13:46:46.310Z,23.29
2023-03-28T13:49:31.661Z,23.32
2023-03-28T13:52:11.136Z,23.36
2023-03-28T13:54:37.874Z,24.43
2023-03-28T13:57:15.402Z,23.64
2023-03-28T14:00:01.050Z,23.21
2023-03-28T14:02:36.852Z,22.75
2023-03-28T14:05:25.456Z,23.27
2023-03-28T14:07:54.622Z,23.91
2023-03-28T14:10:34.359Z,24.87
2023-03-28T14:13:05.386Z,24.31
2023-03-28T14:15:36.615Z,24.43
2023-03-28T14:18:12.906Z,24.47
2023-03-28T14:20:40.480Z,24.36
2023-03-28T14:23:07.331Z,24.90
2023-03-28T14:25:36.087Z,24.12
2023-03-28T14:28:08.936Z,23.84
2023-03-28T14:30:43.768Z,23.68
2023-03-28T14:33:13.503Z,23.30
2023-03-28T14:35:42.919Z,23.55
2023-03-28T14:38:16.015Z,24.07
2023-03-28T14:40:45.468Z,23.74
2023-03-28T14:43:13.829Z,23.92
2023-03-28T14:45:45.787Z,23.97
2023-03-28T14:48:18.199Z,24.08
2023-03-28T14:50:49.184Z,24.46
2023-03-28T14:53:22.203Z,24.41
2023-03-28T14:55:51.079Z,24.71
2023-03-28T14:58:22.455Z,24.23
2023-03-28T15:00:52.850Z,24.13
2023-03-28T15:03:24.044Z,23.87
2023-03-28T15:05:52.876Z,24.21
2023-03-28T15:08:38.580Z,23.21
2023-03-28T15:11:08.634Z,23.53
2023-03-28T15:13:41.648Z,23.64
2023-03-28T15:16:09.347Z,23.98
2023-03-28T15:18:47.747Z,23.04
2023-03-28T15:21:18.793Z,23.79
2023-03-28T15:23:54.236Z,23.52
2023-03-28T15:26:45.237Z,23.23
2023-03-28T15:29:16.603Z,24.04
2023-03-28T15:31:43.535Z,24.57
2023-03-28T15:34:12.363Z,24.21
2023-03-28T15:36:49.230Z,23.43
2023-03-28T15:39:26.118Z,24.07
2023-03-28T15:42:18.054Z,23.89
2023-03-28T15:45:19.025Z,23.86
2023-03-28T15:47:48.490Z,24.24
2023-03-28T15:50:40.120Z,24.35
2023-03-28T15:53:12.468Z,25.31
2023-03-28T15:55:40.731Z,24.96
2023-03-28T15:58:13.451Z,24.75
2023-03-28T16:00:41.962Z,24.57
2023-03-28T16:03:25.195Z,24.56
2023-03-28T16:06:31.887Z,24.55
2023-03-28T16:09:22.228Z,25.09
2023-03-28T16:12:00.763Z,25.30
2023-03-28T16:14:27.603Z,25.69
2023-03-28T16:16:56.002Z,25.46
2023-03-28T16:19:26.634Z,25.07
2023-03-28T16:21:54.119Z,25.04
2023-03-28T16:24:20.736Z,24.78
2023-03-28T16:26:48.181Z,24.88
2023-03-28T16:29:15.053Z,24.90
2023-03-28T16:31:41.666Z,24.54
2023-03-28T16:34:09.981Z,24.66
2023-03-28T16:36:37.391Z,25.22
2023-03-28T16:39:06.250Z,25.11
2023-03-28T16:41:32.803Z,25.09
2023-03-28T16:43:59.405Z,25.59
2023-03-28T16:46:26.154Z,25.75
2023-03-28T16:48:52.715Z,25.50
2023-03-28T16:51:19.335Z,25.91
2023-03-28T16:53:45.907Z,26.82
2023-03-28T16:56:12.610Z,26.89
2023-03-28T16:58:39.780Z,27.36
2023-03-28T17:01:09.362Z,27.70
2023-03-28T17:03:36.656Z,27.64
2023-03-28T17:06:08.947Z,27.86
2023-03-28T17:08:36.370Z,27.59
2023-03-28T17:11:06.310Z,28.16
2023-03-28T17:13:34.385Z,28.51
2023-03-28T17:16:01.324Z,29.10
2023-03-28T17:18:29.854Z,29.10
2023-03-28T17:21:08.222Z,29.06
2023-03-28T17:23:37.327Z,28.90
2023-03-28T17:26:07.539Z,28.74
2023-03-28T17:28:39.072Z,28.75
2023-03-28T17:31:08.363Z,29.23
2023-03-28T17:33:35.367Z,29.68
2023-03-28T17:36:23.421Z,29.99
2023-03-28T17:38:51.429Z,29.86
2023-03-28T17:41:23.368Z,30.20
2023-03-28T17:43:51.217Z,30.29
2023-03-28T17:46:18.167Z,30.78
2023-03-28T17:48:45.150Z,31.10
2023-03-28T17:51:14.501Z,31.40
2023-03-28T17:53:43.344Z,31.96
2023-03-28T17:56:11.787Z,32.06
2023-03-28T17:58:39.231Z,32.56
2023-03-28T18:01:11.553Z,32.86
2023-03-28T18:03:41.487Z,33.27
2023-03-28T18:06:08.909Z,33.43
2023-03-28T18:08:35.813Z,33.90
2023-03-28T18:11:09.539Z,33.95
2023-03-28T18:13:37.254Z,34.03
2023-03-28T18:16:09.136Z,34.57
2023-03-28T18:18:36.199Z,34.39
2023-03-28T18:21:04.209Z,34.71
2023-03-28T18:23:31.843Z,34.75
2023-03-28T18:25:58.422Z,34.77
2023-03-28T18:28:25.051Z,35.13
2023-03-28T18:30:51.522Z,35.56
2023-03-28T18:33:19.349Z,35.52
2023-03-28T18:35:46.860Z,35.60
2023-03-28T18:38:13.954Z,36.29
2023-03-28T18:40:40.838Z,36.54
2023-03-28T18:43:08.005Z,36.67
2023-03-28T18:45:35.845Z,36.59
2023-03-28T18:48:02.419Z,36.14
2023-03-28T18:50:29.757Z,36.51
2023-03-28T18:52:57.376Z,36.38
2023-03-28T18:55:24.154Z,37.06
2023-03-28T18:57:50.615Z,37.27
2023-03-28T19:00:20.518Z,37.57
2023-03-28T19:02:48.877Z,37.40
2023-03-28T19:05:16.627Z,37.52
2023-03-28T19:07:44.361Z,37.47
2023-03-28T19:10:13.173Z,37.50
2023-03-28T19:12:41.072Z,37.46
2023-03-28T19:15:08.643Z,37.06
2023-03-28T19:17:37.807Z,37.53
2023-03-28T19:20:12.281Z,38.54
2023-03-28T19:22:40.339Z,39.21
2023-03-28T19:25:08.189Z,39.97
2023-03-28T19:27:35.914Z,40.21
2023-03-28T19:30:02.958Z,40.33
2023-03-28T19:32:30.552Z,39.94
2023-03-28T19:34:57.239Z,39.93
2023-03-28T19:37:23.752Z,40.08
2023-03-28T19:39:50.237Z,39.89
2023-03-28T19:42:18.102Z,38.80
2023-03-28T19:44:44.570Z,39.27
2023-03-28T19:47:11.537Z,39.33
2023-03-28T19:49:38.731Z,40.05
2023-03-28T19:52:05.675Z,39.83
2023-03-28T19:54:32.292Z,40.05
2023-03-28T19:56:58.766Z,40.31
2023-03-28T19:59:25.269Z,40.34
2023-03-28T20:01:51.819Z,40.83
2023-03-28T20:04:20.786Z,40.92
2023-03-28T20:06:48.728Z,41.15
2023-03-28T20:09:15.444Z,41.65
2023-03-28T20:11:42.110Z,42.03
2023-03-28T20:14:09.244Z,42.11
2023-03-28T20:16:35.977Z,42.11
2023-03-28T20:19:02.927Z,42.46
2023-03-28T20:21:29.595Z,42.14
2023-03-28T20:23:58.541Z,42.53
2023-03-28T20:26:27.078Z,42.33
2023-03-28T20:28:56.814Z,42.68
2023-03-28T20:31:23.690Z,42.92
2023-03-28T20:33:52.628Z,42.73
2023-03-28T20:36:19.179Z,42.55
2023-03-28T20:38:45.736Z,42.50
2023-03-28T20:41:14.304Z,42.09
2023-03-28T20:43:46.540Z,42.22
2023-03-28T20:46:18.401Z,41.92
2023-03-28T20:48:46.482Z,41.75
2023-03-28T20:51:17.148Z,41.71
2023-03-28T20:53:45.993Z,41.53
2023-03-28T20:56:13.624Z,41.51
2023-03-28T20:58:40.796Z,41.48
2023-03-28T21:01:09.262Z,42.12
2023-03-28T21:03:52.026Z,42.19
2023-03-28T21:06:25.290Z,42.04
2023-03-28T21:08:54.294Z,42.08
2023-03-28T21:11:24.749Z,42.70
2023-03-28T21:13:51.234Z,43.37
2023-03-28T21:16:18.342Z,43.54
2023-03-28T21:18:45.566Z,43.11
2023-03-28T21:21:13.797Z,42.79
2023-03-28T21:23:41.081Z,42.89
2023-03-28T21:26:19.144Z,43.10
2023-03-28T21:28:46.436Z,43.41
2023-03-28T21:31:15.845Z,44.11
2023-03-28T21:33:42.768Z,44.00
2023-03-28T21:36:12.249Z,44.55
2023-03-28T21:38:40.049Z,45.64
2023-03-28T21:41:07.498Z,45.72
2023-03-28T21:43:34.410Z,45.99
2023-03-28T21:46:01.331Z,46.40
2023-03-28T21:48:29.004Z,46.98
2023-03-28T21:51:03.045Z,47.03
2023-03-28T21:53:33.126Z,46.98
2023-03-28T21:56:00.097Z,47.04
2023-03-28T21:58:32.709Z,47.77
2023-03-28T22:01:01.562Z,47.13
2023-03-28T22:03:29.100Z,47.20
2023-03-28T22:05:56.074Z,47.63
2023-03-28T22:08:22.904Z,48.11
2023-03-28T22:10:58.538Z,48.54
2023-03-28T22:13:25.277Z,48.21
2023-03-28T22:15:58.465Z,48.79
2023-03-28T22:18:25.899Z,48.16
2023-03-28T22:20:53.356Z,47.91
2023-03-28T22:23:22.412Z,47.51
2023-03-28T22:25:49.350Z,47.84
2023-03-28T22:28:16.254Z,48.96
2023-03-28T22:30:42.771Z,49.88
2023-03-28T22:33:11.017Z,50.48
2023-03-28T22:35:38.318Z,50.63
2023-03-28T22:38:05.555Z,50.32
2023-03-28T22:40:32.240Z,51.27
2023-03-28T22:42:58.971Z,51.61
2023-03-28T22:45:28.587Z,51.88
2023-03-28T22:47:58.345Z,51.41
2023-03-28T22:50:25.036Z,52.14
2023-03-28T22:52:52.483Z,51.85
2023-03-28T22:55:22.065Z,53.29
2023-03-28T22:57:51.348Z,54.14
2023-03-28T23:00:18.978Z,54.16
2023-03-28T23:02:46.654Z,53.69
2023-03-28T23:05:13.597Z,53.06
2023-03-28T23:07:41.492Z,52.58
2023-03-28T23:10:14.525Z,52.70
2023-03-28T23:12:42.072Z,52.91
2023-03-28T23:15:09.346Z,53.00
2023-03-28T23:17:35.819Z,53.31
2023-03-28T23:20:03.416Z,53.81
2023-03-28T23:22:29.822Z,53.86
2023-03-28T23:24:56.289Z,53.55
2023-03-28T23:27:22.687Z,52.56
2023-03-28T23:29:49.078Z,52.66
2023-03-28T23:32:15.794Z,52.01
2023-03-28T23:34:42.231Z,52.43
2023-03-28T23:37:09.934Z,51.92
2023-03-28T23:39:37.513Z,52.43
2023-03-28T23:42:03.997Z,52.55
2023-03-28T23:44:31.273Z,53.03
2023-03-28T23:46:57.823Z,53.45
2023-03-28T23:49:24.339Z,54.50
2023-03-28T23:51:50.885Z,53.81
2023-03-28T23:54:18.578Z,53.73
2023-03-28T23:56:45.049Z,53.84
2023-03-28T23:59:12.023Z,53.49
